createdAt,value
2023-11-14T00:01:07.956Z,6.10
2023-11-14T00:03:36.708Z,6.83
2023-11-14T00:06:05.892Z,6.77
2023-11-14T00:08:34.114Z,7.50
2023-11-14T00:11:03.246Z,6.67
2023-11-14T00:13:31.568Z,6.73
2023-11-14T00:15:59.990Z,8.03
2023-11-14T00:18:29.848Z,6.30
2023-11-14T00:20:59.406Z,6.97
2023-11-14T00:23:27.778Z,6.37
2023-11-14T00:25:56.164Z,7.13
2023-11-14T00:28:25.200Z,6.37
2023-11-14T00:30:53.537Z,5.80
2023-11-14T00:33:23.449Z,5.90
2023-11-14T00:35:53.174Z,7.00
2023-11-14T00:38:21.441Z,6.20
2023-11-14T00:40:49.687Z,6.87
2023-11-14T00:43:17.988Z,6.57
2023-11-14T00:45:46.164Z,6.80
2023-11-14T00:48:14.341Z,5.90
2023-11-14T00:50:42.633Z,8.67
2023-11-14T00:53:12.545Z,6.83
2023-11-14T00:55:40.877Z,6.80
2023-11-14T00:58:09.235Z,6.73
2023-11-14T01:00:38.469Z,7.40
2023-11-14T01:03:07.061Z,7.30
2023-11-14T01:05:35.397Z,6.93
2023-11-14T01:08:03.657Z,6.73
2023-11-14T01:10:33.604Z,6.80
2023-11-14T01:13:02.191Z,6.70
2023-11-14T01:15:30.554Z,5.57
2023-11-14T01:17:59.017Z,7.37
2023-11-14T01:20:27.500Z,6.50
2023-11-14T01:22:55.835Z,7.23
2023-11-14T01:25:24.819Z,6.57
2023-11-14T01:27:54.473Z,6.23
2023-11-14T01:30:22.856Z,6.37
2023-11-14T01:32:51.244Z,6.80
2023-11-14T01:35:19.505Z,6.43
2023-11-14T01:37:47.890Z,6.37
2023-11-14T01:40:16.210Z,7.13
2023-11-14T01:42:44.493Z,7.13
2023-11-14T01:45:15.057Z,6.40
2023-11-14T01:47:47.661Z,6.57
2023-11-14T01:50:18.265Z,6.70
2023-11-14T01:52:46.901Z,7.30
2023-11-14T01:55:15.227Z,5.90
2023-11-14T01:57:44.292Z,6.73
2023-11-14T02:00:15.007Z,7.33
2023-11-14T02:02:43.433Z,6.80
2023-11-14T02:05:12.016Z,6.30
2023-11-14T02:07:40.774Z,6.00
2023-11-14T02:10:09.452Z,6.70
2023-11-14T02:12:37.935Z,7.53
2023-11-14T02:15:07.124Z,6.30
2023-11-14T02:17:37.316Z,6.70
2023-11-14T02:20:06.477Z,5.23
2023-11-14T02:22:34.865Z,6.20
2023-11-14T02:25:05.553Z,6.57
2023-11-14T02:27:33.982Z,6.00
2023-11-14T02:30:04.111Z,6.97
2023-11-14T02:32:32.819Z,6.83
2023-11-14T02:35:01.177Z,6.57
2023-11-14T02:37:29.853Z,6.70
2023-11-14T02:39:58.324Z,6.67
2023-11-14T02:42:28.444Z,6.70
2023-11-14T02:45:00.121Z,6.50
2023-11-14T02:47:28.764Z,5.43
2023-11-14T02:49:59.641Z,6.50
2023-11-14T02:52:28.150Z,6.90
2023-11-14T02:54:56.475Z,5.63
2023-11-14T02:57:25.162Z,7.37
2023-11-14T02:59:54.823Z,7.00
2023-11-14T03:02:23.606Z,6.10
2023-11-14T03:04:52.550Z,7.07
2023-11-14T03:07:20.984Z,5.57
2023-11-14T03:09:49.447Z,5.60
2023-11-14T03:12:18.656Z,9.10
2023-11-14T03:14:46.936Z,9.47
2023-11-14T03:17:16.928Z,20.07
2023-11-14T03:19:45.332Z,21.90
2023-11-14T03:22:13.657Z,17.60
2023-11-14T03:24:41.981Z,15.97
2023-11-14T03:27:10.402Z,13.97
2023-11-14T03:29:38.736Z,12.77
2023-11-14T03:32:07.368Z,16.97
2023-11-14T03:34:37.226Z,23.37
2023-11-14T03:37:06.022Z,37.07
2023-11-14T03:39:35.039Z,33.93
2023-11-14T03:42:03.481Z,35.90
2023-11-14T03:44:31.861Z,23.33
2023-11-14T03:47:00.295Z,14.27
2023-11-14T03:49:28.670Z,19.17
2023-11-14T03:51:58.991Z,15.80
2023-11-14T03:54:27.320Z,10.90
2023-11-14T03:56:55.604Z,8.43
2023-11-14T03:59:24.533Z,6.93
2023-11-14T04:01:52.933Z,8.13
2023-11-14T04:04:21.237Z,6.40
2023-11-14T04:06:49.568Z,5.33
2023-11-14T04:09:19.811Z,7.10
2023-11-14T04:11:48.497Z,6.17
2023-11-14T04:14:17.162Z,6.17
2023-11-14T04:16:45.665Z,7.30
2023-11-14T04:19:14.288Z,5.93
2023-11-14T04:21:43.063Z,6.23
2023-11-14T04:24:11.383Z,7.03
2023-11-14T04:26:41.967Z,7.07
2023-11-14T04:29:10.719Z,6.80
2023-11-14T04:31:39.169Z,5.70
2023-11-14T04:34:08.066Z,5.83
2023-11-14T04:36:36.854Z,5.50
2023-11-14T04:39:06.062Z,6.33
2023-11-14T04:41:34.279Z,6.43
2023-11-14T04:44:04.489Z,5.67
2023-11-14T04:46:32.904Z,6.03
2023-11-14T04:49:01.254Z,6.00
2023-11-14T04:51:29.585Z,5.87
2023-11-14T04:53:57.958Z,5.97
2023-11-14T04:56:26.401Z,5.27
2023-11-14T04:58:54.677Z,5.83
2023-11-14T05:01:24.500Z,6.20
2023-11-14T05:03:52.989Z,6.13
2023-11-14T05:06:21.382Z,5.17
2023-11-14T05:08:49.661Z,5.80
2023-11-14T05:11:18.190Z,5.57
2023-11-14T05:13:46.487Z,5.33
2023-11-14T05:16:22.339Z,5.83
2023-11-14T05:18:54.534Z,4.97
2023-11-14T05:21:23.074Z,5.83
2023-11-14T05:23:51.353Z,5.73
2023-11-14T05:26:19.515Z,4.93
2023-11-14T05:28:48.489Z,5.70
2023-11-14T05:31:16.815Z,5.63
2023-11-14T05:33:46.091Z,5.73
2023-11-14T05:36:16.666Z,5.77
2023-11-14T05:38:46.375Z,4.97
2023-11-14T05:41:15.508Z,6.17
2023-11-14T05:43:44.079Z,5.00
2023-11-14T05:46:12.668Z,7.03
2023-11-14T05:48:41.063Z,5.87
2023-11-14T05:51:09.660Z,4.80
2023-11-14T05:53:44.032Z,5.97
2023-11-14T05:56:12.301Z,5.63
2023-11-14T05:58:41.002Z,6.43
2023-11-14T06:01:11.421Z,5.67
2023-11-14T06:03:39.861Z,5.83
2023-11-14T06:06:08.614Z,6.07
2023-11-14T06:08:36.945Z,5.27
2023-11-14T06:11:07.550Z,6.70
2023-11-14T06:13:35.870Z,5.40
2023-11-14T06:16:04.502Z,5.80
2023-11-14T06:18:32.804Z,5.33
2023-11-14T06:21:01.439Z,5.83
2023-11-14T06:23:29.767Z,5.80
2023-11-14T06:25:59.462Z,5.37
2023-11-14T06:28:30.364Z,5.23
2023-11-14T06:30:58.946Z,6.10
2023-11-14T06:33:27.260Z,5.10
2023-11-14T06:35:56.681Z,4.97
2023-11-14T06:38:24.949Z,5.70
2023-11-14T06:40:53.323Z,5.33
2023-11-14T06:43:21.648Z,6.13
2023-11-14T06:45:52.085Z,6.17
2023-11-14T06:48:20.311Z,6.53
2023-11-14T06:50:50.282Z,5.13
2023-11-14T06:53:20.433Z,6.50
2023-11-14T06:55:48.843Z,5.43
2023-11-14T06:58:17.088Z,5.87
2023-11-14T07:00:46.342Z,6.07
2023-11-14T07:03:16.173Z,6.10
2023-11-14T07:05:44.590Z,5.70
2023-11-14T07:08:12.878Z,6.60
2023-11-14T07:10:41.927Z,6.33
2023-11-14T07:13:10.997Z,6.27
2023-11-14T07:15:39.540Z,6.37
2023-11-14T07:18:10.478Z,5.80
2023-11-14T07:20:40.336Z,6.53
2023-11-14T07:23:08.707Z,5.67
2023-11-14T07:25:40.266Z,6.53
2023-11-14T07:28:08.586Z,5.97
2023-11-14T07:30:36.903Z,5.80
2023-11-14T07:33:05.428Z,5.73
2023-11-14T07:35:38.893Z,5.47
2023-11-14T07:38:09.138Z,6.03
2023-11-14T07:40:37.424Z,5.33
2023-11-14T07:43:07.951Z,6.43
2023-11-14T07:45:36.976Z,5.83
2023-11-14T07:48:05.552Z,6.17
2023-11-14T07:50:34.780Z,5.90
2023-11-14T07:53:03.170Z,5.87
2023-11-14T07:55:33.532Z,5.50
2023-11-14T07:58:01.911Z,5.73
2023-11-14T08:00:31.925Z,5.03
2023-11-14T08:03:00.412Z,5.50
2023-11-14T08:05:29.281Z,5.80
2023-11-14T08:07:57.624Z,5.60
2023-11-14T08:10:25.910Z,5.43
2023-11-14T08:12:55.684Z,5.07
2023-11-14T08:15:24.054Z,5.17
2023-11-14T08:17:52.818Z,5.67
2023-11-14T08:20:21.390Z,5.13
2023-11-14T08:22:50.364Z,4.90
2023-11-14T08:25:21.490Z,6.53
2023-11-14T08:27:50.250Z,7.00
2023-11-14T08:30:20.039Z,6.37
2023-11-14T08:32:48.613Z,5.97
2023-11-14T08:35:17.253Z,5.07
2023-11-14T08:37:45.630Z,5.73
2023-11-14T08:40:14.773Z,6.83
2023-11-14T08:42:43.000Z,7.37
2023-11-14T08:45:11.390Z,6.70
2023-11-14T08:47:41.228Z,6.67
2023-11-14T08:50:12.817Z,5.50
2023-11-14T08:52:41.433Z,6.33
2023-11-14T08:55:09.959Z,6.63
2023-11-14T08:57:38.339Z,6.00
2023-11-14T09:00:10.651Z,6.17
2023-11-14T09:02:40.662Z,6.50
2023-11-14T09:05:11.759Z,5.73
2023-11-14T09:07:40.191Z,6.10
2023-11-14T09:10:09.283Z,6.20
2023-11-14T09:12:37.629Z,6.43
2023-11-14T09:15:06.861Z,6.20
2023-11-14T09:17:35.900Z,6.37
2023-11-14T09:20:07.223Z,5.97
2023-11-14T09:22:35.539Z,5.03
2023-11-14T09:25:04.890Z,5.40
2023-11-14T09:27:33.256Z,5.00
2023-11-14T09:30:01.848Z,5.10
2023-11-14T09:32:30.438Z,5.70
2023-11-14T09:34:58.906Z,4.70
2023-11-14T09:37:29.338Z,5.93
2023-11-14T09:39:57.713Z,4.53
2023-11-14T09:42:26.510Z,4.03
2023-11-14T09:44:55.206Z,3.87
2023-11-14T09:47:23.768Z,4.00
2023-11-14T09:49:52.185Z,3.27
2023-11-14T09:52:21.781Z,3.60
2023-11-14T09:54:51.926Z,2.97
2023-11-14T09:57:20.594Z,2.90
2023-11-14T09:59:48.901Z,2.57
2023-11-14T10:02:17.344Z,2.60
2023-11-14T10:04:45.867Z,2.83
2023-11-14T10:07:18.961Z,2.60
2023-11-14T10:09:48.825Z,2.93
2023-11-14T10:12:32.203Z,2.57
2023-11-14T10:15:02.035Z,2.30
2023-11-14T10:17:41.057Z,2.00
2023-11-14T10:20:10.982Z,1.67
2023-11-14T10:22:47.252Z,2.33
2023-11-14T10:25:28.410Z,2.40
2023-11-14T10:27:58.912Z,2.13
2023-11-14T10:30:41.826Z,1.80
2023-11-14T10:33:10.602Z,2.23
2023-11-14T10:35:39.339Z,2.37
2023-11-14T10:38:18.361Z,2.10
2023-11-14T10:40:47.400Z,2.23
2023-11-14T10:43:15.937Z,2.17
2023-11-14T10:45:46.609Z,2.50
2023-11-14T10:48:21.723Z,2.30
2023-11-14T10:50:50.993Z,2.23
2023-11-14T10:53:19.714Z,2.37
2023-11-14T10:55:51.476Z,2.20
2023-11-14T10:58:21.471Z,2.07
2023-11-14T11:00:51.214Z,2.50
2023-11-14T11:03:20.007Z,2.30
2023-11-14T11:05:49.425Z,2.43
2023-11-14T11:08:17.849Z,2.50
2023-11-14T11:10:46.414Z,2.50
2023-11-14T11:13:15.865Z,2.20
2023-11-14T11:15:45.070Z,2.93
2023-11-14T11:18:15.171Z,3.73
2023-11-14T11:20:44.653Z,3.03
2023-11-14T11:23:14.884Z,3.83
2023-11-14T11:25:43.808Z,4.27
2023-11-14T11:28:30.395Z,4.43
2023-11-14T11:31:08.551Z,4.60
2023-11-14T11:33:38.858Z,5.77
2023-11-14T11:36:25.224Z,5.40
2023-11-14T11:38:54.225Z,5.63
2023-11-14T11:41:23.766Z,5.67
2023-11-14T11:44:00.490Z,5.57
2023-11-14T11:46:40.192Z,5.70
2023-11-14T11:49:39.035Z,5.97
2023-11-14T11:52:13.212Z,6.47
2023-11-14T11:54:42.144Z,6.80
2023-11-14T11:57:11.901Z,6.80
2023-11-14T11:59:58.969Z,5.97
2023-11-14T12:02:28.827Z,6.10
2023-11-14T12:04:59.243Z,6.43
2023-11-14T12:07:31.988Z,5.57
2023-11-14T12:10:00.832Z,5.33
2023-11-14T12:12:36.316Z,5.50
2023-11-14T12:15:06.488Z,5.40
2023-11-14T12:17:36.682Z,5.70
2023-11-14T12:20:13.346Z,5.90
2023-11-14T12:22:43.965Z,5.00
2023-11-14T12:25:13.063Z,5.97
2023-11-14T12:27:41.502Z,4.73
2023-11-14T12:30:11.298Z,5.67
2023-11-14T12:32:40.265Z,5.53
2023-11-14T12:35:08.946Z,4.60
2023-11-14T12:37:37.352Z,5.50
2023-11-14T12:40:11.772Z,4.23
2023-11-14T12:42:40.258Z,5.33
2023-11-14T12:45:10.363Z,5.37
2023-11-14T12:47:40.459Z,4.63
2023-11-14T12:50:10.809Z,5.83
2023-11-14T12:52:40.009Z,5.70
2023-11-14T12:55:10.291Z,4.60
2023-11-14T12:57:38.618Z,4.67
2023-11-14T13:00:09.159Z,5.17
2023-11-14T13:02:40.378Z,5.37
2023-11-14T13:05:09.461Z,6.17
2023-11-14T13:07:37.747Z,5.23
2023-11-14T13:10:08.847Z,4.50
2023-11-14T13:12:38.604Z,4.93
2023-11-14T13:15:07.575Z,4.13
2023-11-14T13:17:36.024Z,3.87
2023-11-14T13:20:04.518Z,3.23
2023-11-14T13:22:35.966Z,4.47
2023-11-14T13:25:04.950Z,3.97
2023-11-14T13:27:33.838Z,3.97
2023-11-14T13:30:03.618Z,4.00
2023-11-14T13:32:33.264Z,4.10
2023-11-14T13:37:33.140Z,3.40
2023-11-14T13:40:07.605Z,4.03
2023-11-14T13:42:36.644Z,3.47
2023-11-14T13:45:06.828Z,3.57
2023-11-14T13:47:35.311Z,2.70
2023-11-14T13:50:06.830Z,2.73
2023-11-14T13:52:35.214Z,2.97
2023-11-14T13:55:04.225Z,2.80
2023-11-14T13:57:32.506Z,2.17
2023-11-14T14:00:00.775Z,3.10
2023-11-14T14:02:31.625Z,2.63
2023-11-14T14:05:00.079Z,2.37
2023-11-14T14:07:28.516Z,2.63
2023-11-14T14:09:57.871Z,3.07
2023-11-14T14:12:26.158Z,2.40
2023-11-14T14:14:54.417Z,2.80
2023-11-14T14:17:22.868Z,2.50
2023-11-14T14:19:52.831Z,2.43
2023-11-14T14:22:22.283Z,2.93
2023-11-14T14:24:51.736Z,3.83
2023-11-14T14:27:21.309Z,3.40
2023-11-14T14:29:50.159Z,3.47
2023-11-14T14:32:19.465Z,3.33
2023-11-14T14:34:48.256Z,3.83
2023-11-14T14:37:18.092Z,3.33
2023-11-14T14:39:50.793Z,3.50
2023-11-14T14:42:21.064Z,3.40
2023-11-14T14:44:49.394Z,4.13
2023-11-14T14:47:19.223Z,4.27
2023-11-14T14:49:48.045Z,4.70
2023-11-14T14:52:17.848Z,5.60
2023-11-14T14:54:46.180Z,5.13
2023-11-14T14:57:14.705Z,4.90
2023-11-14T14:59:42.987Z,5.23
2023-11-14T15:02:11.741Z,5.80
2023-11-14T15:04:40.209Z,5.20
2023-11-14T15:07:09.237Z,6.50
2023-11-14T15:09:39.021Z,4.67
2023-11-14T15:12:07.636Z,3.93
2023-11-14T15:14:38.283Z,4.67
2023-11-14T15:17:07.165Z,4.90
2023-11-14T15:19:35.581Z,4.53
2023-11-14T15:22:03.820Z,4.40
2023-11-14T15:24:32.543Z,3.77
2023-11-14T15:27:02.301Z,3.33
2023-11-14T15:29:30.725Z,2.80
2023-11-14T15:31:59.125Z,3.63
2023-11-14T15:34:27.434Z,3.97
2023-11-14T15:36:55.721Z,3.90
2023-11-14T15:39:25.109Z,3.60
2023-11-14T15:41:53.330Z,3.93
2023-11-14T15:44:23.119Z,4.33
2023-11-14T15:46:51.627Z,4.57
2023-11-14T15:49:19.873Z,5.17
2023-11-14T15:51:48.250Z,3.23
2023-11-14T15:54:18.505Z,1.90
2023-11-14T15:56:46.832Z,1.60
2023-11-14T15:59:14.940Z,1.30
2023-11-14T16:01:46.191Z,0.93
2023-11-14T16:04:15.962Z,0.90
2023-11-14T16:06:44.283Z,1.00
2023-11-14T16:09:12.510Z,1.00
2023-11-14T16:11:40.731Z,0.93
2023-11-14T16:14:08.992Z,0.90
2023-11-14T16:16:37.440Z,1.00
2023-11-14T16:19:07.159Z,0.70
2023-11-14T16:21:35.740Z,0.90
2023-11-14T16:24:06.376Z,0.73
2023-11-14T16:26:36.646Z,0.67
2023-11-14T16:29:05.076Z,0.80
2023-11-14T16:31:37.690Z,1.00
2023-11-14T16:34:07.705Z,1.60
2023-11-14T16:36:36.138Z,1.07
2023-11-14T16:39:05.276Z,0.70
2023-11-14T16:41:34.141Z,1.20
2023-11-14T16:44:02.662Z,1.50
2023-11-14T16:46:30.924Z,2.57
2023-11-14T16:48:59.250Z,3.27
2023-11-14T16:51:32.735Z,4.77
2023-11-14T16:54:01.741Z,5.03
2023-11-14T16:56:30.334Z,5.50
2023-11-14T16:59:00.615Z,5.87
2023-11-14T17:01:30.686Z,5.70
2023-11-14T17:04:01.404Z,4.47
2023-11-14T17:06:31.420Z,5.10
2023-11-14T17:09:00.059Z,3.17
2023-11-14T17:11:28.443Z,3.47
2023-11-14T17:13:56.748Z,3.30
2023-11-14T17:16:25.330Z,3.93
2023-11-14T17:18:53.654Z,4.10
2023-11-14T17:21:22.197Z,4.57
2023-11-14T17:23:52.670Z,4.80
2023-11-14T17:26:22.205Z,3.63
2023-11-14T17:28:51.105Z,5.30
2023-11-14T17:31:19.341Z,6.77
2023-11-14T17:33:47.633Z,7.23
2023-11-14T17:36:16.913Z,7.60
2023-11-14T17:38:45.133Z,9.30
2023-11-14T17:41:15.547Z,9.40
2023-11-14T17:43:44.888Z,9.77
2023-11-14T17:46:13.213Z,9.00
2023-11-14T17:48:41.719Z,8.67
2023-11-14T17:51:13.543Z,7.87
2023-11-14T17:53:46.266Z,7.57
2023-11-14T17:56:16.283Z,6.03
2023-11-14T17:58:45.637Z,5.87
2023-11-14T18:01:14.228Z,6.23
2023-11-14T18:03:44.086Z,6.57
2023-11-14T18:06:12.492Z,5.63
2023-11-14T18:08:42.929Z,3.47
2023-11-14T18:11:12.875Z,3.67
2023-11-14T18:13:42.851Z,2.63
2023-11-14T18:16:11.184Z,3.20
2023-11-14T18:18:39.770Z,2.30
2023-11-14T18:21:08.171Z,2.60
2023-11-14T18:23:36.568Z,2.77
2023-11-14T18:26:05.177Z,2.67
2023-11-14T18:28:33.478Z,2.10
2023-11-14T18:31:03.322Z,2.37
2023-11-14T18:33:32.309Z,3.10
2023-11-14T18:36:03.097Z,2.47
2023-11-14T18:38:31.419Z,2.63
2023-11-14T18:40:59.821Z,4.67
2023-11-14T18:43:29.888Z,6.13
2023-11-14T18:45:58.466Z,6.73
2023-11-14T18:48:28.323Z,7.37
2023-11-14T18:50:57.186Z,7.23
2023-11-14T18:53:27.961Z,7.03
2023-11-14T18:55:56.685Z,6.40
2023-11-14T18:58:25.075Z,8.03
2023-11-14T19:01:01.083Z,8.23
2023-11-14T19:03:33.089Z,7.00
2023-11-14T19:06:01.466Z,5.43
2023-11-14T19:08:30.198Z,4.70
2023-11-14T19:10:58.531Z,4.10
2023-11-14T19:13:26.801Z,4.50
2023-11-14T19:15:55.497Z,4.17
2023-11-14T19:18:23.825Z,3.80
2023-11-14T19:21:21.464Z,4.00
2023-11-14T19:23:44.899Z,3.90
2023-11-14T19:26:13.724Z,6.43
2023-11-14T19:28:44.305Z,6.53
2023-11-14T19:31:12.848Z,5.43
2023-11-14T19:33:41.373Z,6.20
2023-11-14T19:36:13.108Z,5.97
2023-11-14T19:38:41.741Z,4.77
2023-11-14T19:41:10.197Z,4.67
2023-11-14T19:43:38.484Z,8.20
2023-11-14T19:46:06.869Z,6.00
2023-11-14T19:48:35.279Z,6.83
2023-11-14T19:51:05.070Z,6.50
2023-11-14T19:53:34.986Z,7.67
2023-11-14T19:56:04.058Z,7.57
2023-11-14T19:58:32.619Z,7.57
2023-11-14T20:01:02.183Z,7.07
2023-11-14T20:03:31.347Z,7.63
2023-11-14T20:06:03.323Z,7.40
2023-11-14T20:08:34.511Z,8.10
2023-11-14T20:11:02.915Z,7.07
2023-11-14T20:13:31.594Z,7.63
2023-11-14T20:15:59.997Z,6.87
2023-11-14T20:18:28.342Z,7.60
2023-11-14T20:20:56.738Z,7.27
2023-11-14T20:23:25.148Z,6.20
2023-11-14T20:25:54.914Z,8.33
2023-11-14T20:28:24.943Z,7.73
2023-11-14T20:30:53.486Z,7.40
2023-11-14T20:33:23.530Z,8.70
2023-11-14T20:35:51.906Z,9.10
2023-11-14T20:38:20.153Z,7.77
2023-11-14T20:40:48.406Z,9.57
2023-11-14T20:43:18.264Z,9.33
2023-11-14T20:45:47.718Z,7.40
2023-11-14T20:48:18.689Z,7.60
2023-11-14T20:50:47.086Z,8.67
2023-11-14T20:53:15.529Z,7.37
2023-11-14T20:55:43.816Z,7.87
2023-11-14T20:58:11.895Z,9.23
2023-11-14T21:00:41.468Z,10.40
2023-11-14T21:03:09.964Z,8.97
2023-11-14T21:05:38.422Z,7.90
2023-11-14T21:08:07.009Z,7.87
2023-11-14T21:10:35.346Z,6.97
2023-11-14T21:13:04.074Z,6.93
2023-11-14T21:15:32.363Z,7.93
2023-11-14T21:18:02.462Z,7.47
2023-11-14T21:20:30.869Z,8.43
2023-11-14T21:22:59.229Z,7.30
2023-11-14T21:25:27.588Z,6.80
2023-11-14T21:27:56.094Z,7.47
2023-11-14T21:30:26.740Z,8.47
2023-11-14T21:32:57.413Z,7.80
2023-11-14T21:35:29.525Z,7.63
2023-11-14T21:37:57.892Z,7.60
2023-11-14T21:40:26.468Z,7.73
2023-11-14T21:42:54.746Z,6.53
2023-11-14T21:45:23.023Z,6.37
2023-11-14T21:47:52.090Z,6.73
2023-11-14T21:50:20.544Z,6.50
2023-11-14T21:52:50.225Z,7.00
2023-11-14T21:55:18.996Z,7.00
2023-11-14T21:57:47.268Z,6.73
2023-11-14T22:00:16.869Z,6.03
2023-11-14T22:02:45.220Z,5.77
2023-11-14T22:05:13.588Z,7.17
2023-11-14T22:07:42.009Z,6.03
2023-11-14T22:10:11.987Z,7.43
2023-11-14T22:12:40.183Z,5.50
2023-11-14T22:15:09.298Z,6.40
2023-11-14T22:17:37.727Z,5.73
2023-11-14T22:20:06.867Z,6.60
2023-11-14T22:22:35.111Z,6.97
2023-11-14T22:25:05.484Z,7.20
2023-11-14T22:27:35.262Z,6.90
2023-11-14T22:30:03.505Z,6.33
2023-11-14T22:32:31.905Z,6.63
2023-11-14T22:35:01.427Z,7.13
2023-11-14T22:37:30.162Z,6.23
2023-11-14T22:39:58.340Z,6.40
2023-11-14T22:42:26.593Z,6.57
2023-11-14T22:44:58.953Z,7.07
2023-11-14T22:47:28.387Z,6.60
2023-11-14T22:49:58.360Z,7.57
2023-11-14T22:52:26.881Z,6.27
2023-11-14T22:54:55.231Z,8.30
2023-11-14T22:57:23.437Z,7.20
2023-11-14T22:59:51.729Z,7.97
2023-11-14T23:02:21.493Z,7.90
2023-11-14T23:04:50.106Z,7.30
2023-11-14T23:07:18.785Z,7.43
2023-11-14T23:09:47.217Z,6.40
2023-11-14T23:12:16.824Z,8.27
2023-11-14T23:14:48.810Z,7.37
2023-11-14T23:17:17.115Z,6.90
2023-11-14T23:19:46.941Z,7.37
2023-11-14T23:22:18.063Z,6.97
2023-11-14T23:24:48.193Z,7.00
2023-11-14T23:27:16.526Z,7.20
2023-11-14T23:29:44.869Z,6.67
2023-11-14T23:32:13.061Z,6.00
2023-11-14T23:34:41.290Z,7.03
2023-11-14T23:37:11.051Z,6.30
2023-11-14T23:39:40.557Z,5.90
2023-11-14T23:42:09.764Z,6.17
2023-11-14T23:44:38.610Z,6.03
2023-11-14T23:47:07.117Z,6.50
2023-11-14T23:49:35.343Z,6.23
2023-11-14T23:52:03.718Z,5.77
2023-11-14T23:54:33.684Z,6.47
2023-11-14T23:57:01.981Z,5.73
2023-11-14T23:59:30.263Z,6.00
